Time;durP1;ratioP1;P1;durP2;ratioP2;P2;SDS_P1;SDS_P2;PMS_P1;PMS_P2;Temp;Humidity;BMP_temperature;BMP_pressure;BME280_temperature;BME280_humidity;BME280_pressure;Samples;Min_cycle;Max_cycle;Signal;HPM_P1;HPM_P2
2022/01/25 00:27:39;;;;;;;;;;;;;;;3.86;100.00;100774.94;5017931;28;19925;-78
2022/01/25 00:32:12;;;;;;;;;;;;;;;3.49;100.00;100784.13;5017838;28;19925;-78
2022/01/25 00:34:40;;;;;;;;;;;;;;;3.48;100.00;100774.25;5034363;28;19925;-78
2022/01/25 00:37:07;;;;;;;;;;;;;;;3.36;100.00;100772.19;5034103;28;19925;-78
2022/01/25 00:39:37;;;;;;;;;;;;;;;3.49;100.00;100770.31;5080935;28;19931;-79
2022/01/25 00:42:05;;;;;;;;;;;;;;;3.67;100.00;100771.81;5096473;28;19924;-79
2022/01/25 00:44:36;;;;;;;;;;;;;;;3.69;100.00;100762.06;5096591;28;19931;-79
2022/01/25 00:47:06;;;;;;;;;;;;;;;3.83;100.00;100764.53;5095404;28;20395;-79
2022/01/25 00:49:37;;;;;;;;;;;;;;;3.71;100.00;100772.78;5129328;27;19931;-78
2022/01/25 00:52:19;;;;;;;;;;;;;;;3.89;100.00;100774.25;5096219;28;20440;-79
2022/01/25 00:54:47;;;;;;;;;;;;;;;3.86;100.00;100772.16;5078497;28;19928;-79
2022/01/25 00:57:15;;;;;;;;;;;;;;;3.95;100.00;100764.59;5055968;28;19932;-79
2022/01/25 00:59:42;;;;;;;;;;;;;;;4.09;100.00;100767.88;5055904;28;19925;-79
2022/01/25 01:02:13;;;;;;;;;;;;;;;4.23;100.00;100770.34;5055971;28;19924;-79
2022/01/25 01:04:42;;;;;;;;;;;;;;;4.31;100.00;100778.56;5056042;28;19967;-79
2022/01/25 01:07:12;;;;;;;;;;;;;;;4.38;100.00;100766.94;5054506;28;19925;-79
2022/01/25 01:09:42;;;;;;;;;;;;;;;4.30;100.00;100767.84;5055678;28;19932;-79
2022/01/25 01:12:16;;;;;;;;;;;;;;;4.32;100.00;100763.59;5054616;28;20292;-79
2022/01/25 01:31:56;;;;;;;;;;;;;;;4.37;100.00;100757.84;5055470;28;20399;-79
2022/01/25 01:44:03;;;;;;;;;;;;;;;4.45;100.00;100753.34;5055246;28;19927;-79
2022/01/25 01:49:00;;;;;;;;;;;;;;;4.51;100.00;100747.28;5053835;28;19924;-78
2022/01/25 01:51:34;;;;;;;;;;;;;;;4.40;100.00;100729.47;5054785;28;20432;-78
2022/01/25 01:54:07;;;;;;;;;;;;;;;4.48;100.00;100725.81;5054994;28;20279;-78
2022/01/25 01:56:35;;;;;;;;;;;;;;;4.55;100.00;100731.59;5084480;28;19967;-79
2022/01/25 01:59:04;;;;;;;;;;;;;;;4.57;100.00;100734.00;5094953;28;19930;-78
2022/01/25 02:01:32;;;;;;;;;;;;;;;4.52;100.00;100732.28;5094968;28;19924;-79
2022/01/25 02:04:00;;;;;;;;;;;;;;;4.46;100.00;100727.28;5093756;28;19931;-79
2022/01/25 02:06:27;;;;;;;;;;;;;;;4.39;100.00;100722.31;5095140;28;19993;-78
2022/01/25 02:08:54;;;;;;;;;;;;;;;4.33;100.00;100731.97;5093613;28;19931;-78
2022/01/25 02:11:21;;;;;;;;;;;;;;;4.27;100.00;100736.13;5093646;28;19969;-78
2022/01/25 02:13:49;;;;;;;;;;;;;;;4.35;100.00;100732.44;5094905;28;19931;-79
2022/01/25 02:24:35;;;;;;;;;;;;;;;4.53;100.00;100722.00;5093434;28;19924;-79
2022/01/25 02:27:02;;;;;;;;;;;;;;;4.55;100.00;100708.63;5094037;28;19924;-79
2022/01/25 02:29:30;;;;;;;;;;;;;;;4.56;100.00;100713.81;5076626;28;19923;-79
2022/01/25 02:31:57;;;;;;;;;;;;;;;3.92;100.00;100712.72;5094649;28;20367;-79
2022/01/25 02:34:24;;;;;;;;;;;;;;;3.76;100.00;100722.00;5093157;28;19924;-80
2022/01/25 02:37:11;;;;;;;;;;;;;;;3.86;100.00;100714.09;5094416;28;19924;-79
2022/01/25 02:39:39;;;;;;;;;;;;;;;4.04;100.00;100710.00;5093027;28;19931;-79
2022/01/25 02:42:06;;;;;;;;;;;;;;;4.08;100.00;100710.13;5093185;28;20082;-79
2022/01/25 02:44:35;;;;;;;;;;;;;;;3.58;100.00;100713.84;5093092;28;20332;-79
2022/01/25 02:49:31;;;;;;;;;;;;;;;3.81;100.00;100711.53;5093986;28;20018;-78
2022/01/25 02:52:00;;;;;;;;;;;;;;;3.69;100.00;100714.25;5094284;28;19983;-79
2022/01/25 02:54:28;;;;;;;;;;;;;;;3.67;100.00;100711.00;5094054;28;20302;-78
2022/01/25 02:56:55;;;;;;;;;;;;;;;3.64;100.00;100717.19;5076279;28;19928;-79
2022/01/25 02:59:22;;;;;;;;;;;;;;;3.85;100.00;100715.22;5072682;28;19924;-79
2022/01/25 03:01:50;;;;;;;;;;;;;;;3.96;100.00;100719.19;5072736;28;19931;-79
2022/01/25 03:04:20;;;;;;;;;;;;;;;3.97;100.00;100720.78;5073696;28;19929;-79
2022/01/25 03:06:47;;;;;;;;;;;;;;;4.04;100.00;100723.03;5073829;28;19929;-79
2022/01/25 03:09:15;;;;;;;;;;;;;;;4.12;100.00;100717.38;5072544;28;19932;-78
2022/01/25 03:11:45;;;;;;;;;;;;;;;4.14;100.00;100715.09;5073789;28;20382;-79
2022/01/25 03:14:13;;;;;;;;;;;;;;;4.19;100.00;100706.59;5072514;28;20033;-79
2022/01/25 03:16:45;;;;;;;;;;;;;;;4.26;100.00;100708.78;5073476;28;20326;-78
2022/01/25 03:22:05;;;;;;;;;;;;;;;4.19;100.00;100690.00;5073587;28;19928;-79
2022/01/25 03:24:32;;;;;;;;;;;;;;;4.11;100.00;100693.66;5056062;28;20337;-78
2022/01/25 03:26:59;;;;;;;;;;;;;;;3.90;100.00;100692.06;5072613;28;20272;-79
2022/01/25 03:29:26;;;;;;;;;;;;;;;3.58;100.00;100699.19;5073634;28;20376;-78
2022/01/25 03:31:53;;;;;;;;;;;;;;;3.73;100.00;100698.56;5073556;28;20421;-78
2022/01/25 03:34:21;;;;;;;;;;;;;;;3.88;100.00;100700.72;5073668;28;20388;-78
2022/01/25 03:36:48;;;;;;;;;;;;;;;3.96;100.00;100693.47;5073659;28;19925;-78
2022/01/25 03:39:15;;;;;;;;;;;;;;;3.88;100.00;100688.88;5074612;28;19928;-78
2022/01/25 03:41:42;;;;;;;;;;;;;;;3.53;100.00;100689.16;5077742;28;20413;-79
2022/01/25 03:44:09;;;;;;;;;;;;;;;3.39;100.00;100687.81;5077641;28;19924;-78
2022/01/25 03:46:55;;;;;;;;;;;;;;;3.15;100.00;100682.94;5077293;28;20372;-78
2022/01/25 03:52:08;;;;;;;;;;;;;;;3.43;100.00;100684.06;5077430;28;19925;-78
2022/01/25 03:54:35;;;;;;;;;;;;;;;3.60;100.00;100677.56;5059503;28;19971;-79
2022/01/25 03:57:03;;;;;;;;;;;;;;;3.67;100.00;100677.81;5096199;28;20041;-78
2022/01/25 03:59:32;;;;;;;;;;;;;;;3.80;100.00;100675.91;5097453;28;19924;-79
2022/01/25 04:01:59;;;;;;;;;;;;;;;3.82;100.00;100671.66;5097342;28;20294;-78
2022/01/25 04:04:26;;;;;;;;;;;;;;;3.65;100.00;100677.34;5097585;28;19977;-78
2022/01/25 04:06:54;;;;;;;;;;;;;;;3.73;100.00;100676.47;5097425;28;19924;-78
2022/01/25 04:09:22;;;;;;;;;;;;;;;3.34;100.00;100671.44;5097461;28;19924;-78
2022/01/25 04:11:49;;;;;;;;;;;;;;;3.54;100.00;100678.91;5096205;28;19931;-78
2022/01/25 04:14:16;;;;;;;;;;;;;;;3.70;100.00;100679.91;5096288;28;19924;-78
2022/01/25 04:16:59;;;;;;;;;;;;;;;3.84;100.00;100677.66;5095720;28;20333;-79
2022/01/25 04:19:46;;;;;;;;;;;;;;;3.80;100.00;100673.97;5095791;28;19932;-79
2022/01/25 04:27:11;;;;;;;;;;;;;;;3.88;100.00;100667.53;5097127;28;20015;-79
2022/01/25 04:29:38;;;;;;;;;;;;;;;3.94;100.00;100679.22;5095662;28;19924;-78
2022/01/25 04:32:07;;;;;;;;;;;;;;;3.96;100.00;100680.47;5097038;28;19924;-78
2022/01/25 04:53:30;;;;;;;;;;;;;;;2.75;100.00;100651.38;5096655;28;19924;-78
2022/01/25 04:56:09;;;;;;;;;;;;;;;2.57;100.00;100657.31;5085659;28;20271;-78
2022/01/25 04:59:04;;;;;;;;;;;;;;;2.68;100.00;100664.88;5076103;28;19928;-78
2022/01/25 05:01:29;;;;;;;;;;;;;;;3.22;100.00;100660.31;5074931;28;19924;-78
2022/01/25 05:04:04;;;;;;;;;;;;;;;3.31;100.00;100652.78;5076059;28;19924;-79
2022/01/25 05:06:32;;;;;;;;;;;;;;;2.62;100.00;100643.34;5076334;28;20006;-79
2022/01/25 05:09:11;;;;;;;;;;;;;;;2.62;100.00;100641.38;5074868;28;19967;-79
2022/01/25 05:11:43;;;;;;;;;;;;;;;2.67;100.00;100643.13;5075991;28;19970;-78
2022/01/25 05:14:35;;;;;;;;;;;;;;;2.98;100.00;100661.00;5075980;28;20364;-79
2022/01/25 05:17:02;;;;;;;;;;;;;;;3.28;100.00;100656.22;5075702;28;19929;-79
2022/01/25 05:22:05;;;;;;;;;;;;;;;3.37;100.00;100660.53;5075887;28;19928;-79
2022/01/25 05:24:34;;;;;;;;;;;;;;;3.51;100.00;100668.53;5074648;28;19925;-79
2022/01/25 05:27:01;;;;;;;;;;;;;;;3.50;100.00;100678.78;5075393;28;20398;-79
2022/01/25 05:29:28;;;;;;;;;;;;;;;3.52;100.00;100664.63;5074374;28;20427;-79
2022/01/25 05:31:56;;;;;;;;;;;;;;;3.37;100.00;100655.00;5075569;28;19925;-79
2022/01/25 05:34:23;;;;;;;;;;;;;;;3.36;100.00;100655.34;5075490;28;19924;-79
2022/01/25 05:36:51;;;;;;;;;;;;;;;3.23;100.00;100653.63;5075499;28;19931;-78
2022/01/25 05:39:24;;;;;;;;;;;;;;;3.06;100.00;100662.06;5074225;28;20367;-79
2022/01/25 05:41:57;;;;;;;;;;;;;;;3.08;100.00;100666.09;5075120;28;19942;-79
2022/01/25 05:45:18;;;;;;;;;;;;;;;3.21;100.00;100659.50;5076168;28;19932;-79
2022/01/25 05:47:14;;;;;;;;;;;;;;;3.09;100.00;100656.66;5080498;28;19924;-78
2022/01/25 05:49:45;;;;;;;;;;;;;;;3.11;100.00;100664.63;5077875;28;19924;-78
2022/01/25 05:52:12;;;;;;;;;;;;;;;3.14;100.00;100670.28;5095290;28;19978;-79
2022/01/25 05:54:39;;;;;;;;;;;;;;;3.11;100.00;100676.47;5095325;28;19971;-79
2022/01/25 05:57:07;;;;;;;;;;;;;;;3.11;100.00;100672.91;5095072;28;19963;-79
2022/01/25 05:59:37;;;;;;;;;;;;;;;2.98;100.00;100666.50;5087675;28;19925;-78
2022/01/25 06:02:05;;;;;;;;;;;;;;;3.06;100.00;100662.06;5072843;28;19924;-79
2022/01/25 06:04:32;;;;;;;;;;;;;;;3.06;100.00;100664.84;5074847;28;19939;-78
2022/01/25 06:06:59;;;;;;;;;;;;;;;3.15;100.00;100660.84;5074916;28;20021;-79
2022/01/25 06:09:26;;;;;;;;;;;;;;;2.74;100.00;100662.75;5073493;28;20019;-78
2022/01/25 06:11:54;;;;;;;;;;;;;;;2.40;100.00;100665.66;5077309;28;19924;-78
2022/01/25 06:14:22;;;;;;;;;;;;;;;2.49;100.00;100674.72;5074595;28;19925;-78
2022/01/25 06:16:49;;;;;;;;;;;;;;;2.44;100.00;100669.41;5091701;28;19977;-78
2022/01/25 06:19:16;;;;;;;;;;;;;;;2.55;100.00;100674.22;5094619;28;19924;-78
2022/01/25 06:21:44;;;;;;;;;;;;;;;2.57;100.00;100665.59;5093591;28;19924;-78
2022/01/25 06:24:11;;;;;;;;;;;;;;;2.22;100.00;100675.16;5076696;28;19931;-78
2022/01/25 06:26:38;;;;;;;;;;;;;;;2.05;100.00;100672.44;5094475;28;19928;-78
2022/01/25 06:29:05;;;;;;;;;;;;;;;2.12;100.00;100665.28;5093225;28;19924;-78
2022/01/25 06:31:32;;;;;;;;;;;;;;;1.74;100.00;100669.94;5078937;28;20003;-78
2022/01/25 06:34:00;;;;;;;;;;;;;;;1.86;100.00;100662.59;5074300;28;20367;-78
2022/01/25 06:36:27;;;;;;;;;;;;;;;2.09;100.00;100673.41;5074240;28;19929;-78
2022/01/25 06:38:54;;;;;;;;;;;;;;;2.12;100.00;100679.06;5073976;28;19928;-78
2022/01/25 06:41:24;;;;;;;;;;;;;;;1.71;100.00;100670.59;5072853;28;19925;-78
2022/01/25 06:43:51;;;;;;;;;;;;;;;1.68;100.00;100676.75;5073014;28;19925;-78
2022/01/25 06:46:18;;;;;;;;;;;;;;;1.88;100.00;100672.50;5073909;28;19931;-78
2022/01/25 06:48:45;;;;;;;;;;;;;;;2.12;100.00;100676.31;5056251;28;20026;-78
2022/01/25 06:51:13;;;;;;;;;;;;;;;2.37;100.00;100677.38;5074243;28;19924;-78
2022/01/25 06:53:40;;;;;;;;;;;;;;;2.44;100.00;100675.72;5073144;28;19925;-78
2022/01/25 06:56:07;;;;;;;;;;;;;;;2.43;100.00;100670.53;5055916;28;20403;-78
2022/01/25 06:58:35;;;;;;;;;;;;;;;2.64;100.00;100682.44;5073923;28;19925;-79
2022/01/25 07:01:02;;;;;;;;;;;;;;;2.71;100.00;100682.75;5073670;28;19924;-78
2022/01/25 07:03:29;;;;;;;;;;;;;;;2.91;100.00;100687.47;5072737;28;19924;-78
2022/01/25 07:05:57;;;;;;;;;;;;;;;2.94;100.00;100673.03;5073779;28;20386;-79
2022/01/25 07:08:24;;;;;;;;;;;;;;;2.82;100.00;100676.50;5073961;28;19925;-78
2022/01/25 07:10:52;;;;;;;;;;;;;;;2.73;100.00;100666.63;5073982;28;19979;-79
2022/01/25 07:13:19;;;;;;;;;;;;;;;2.43;100.00;100660.31;5073451;28;20314;-78
2022/01/25 07:15:46;;;;;;;;;;;;;;;2.27;100.00;100661.19;5072416;28;19959;-78
2022/01/25 07:18:15;;;;;;;;;;;;;;;2.04;100.00;100663.38;5092743;28;19966;-78
2022/01/25 07:20:42;;;;;;;;;;;;;;;2.00;100.00;100672.63;5093876;28;20381;-78
2022/01/25 07:23:12;;;;;;;;;;;;;;;2.02;100.00;100675.84;5093529;28;20359;-78
2022/01/25 07:25:39;;;;;;;;;;;;;;;2.04;100.00;100670.81;5093935;28;20375;-78
2022/01/25 07:28:06;;;;;;;;;;;;;;;2.04;100.00;100670.81;5075580;28;19924;-78
2022/01/25 07:30:33;;;;;;;;;;;;;;;1.92;100.00;100670.69;5081422;28;20384;-79
2022/01/25 07:33:23;;;;;;;;;;;;;;;2.04;100.00;100676.34;5042621;28;19931;-78
2022/01/25 07:35:50;;;;;;;;;;;;;;;2.06;100.00;100671.31;5081420;28;20391;-78
2022/01/25 07:38:34;;;;;;;;;;;;;;;2.06;100.00;100669.34;5052402;28;20391;-78
2022/01/25 07:41:15;;;;;;;;;;;;;;;2.37;100.00;100666.34;5092349;28;20536;-78
2022/01/25 07:43:48;;;;;;;;;;;;;;;2.39;100.00;100670.41;5093605;28;20341;-78
2022/01/25 07:46:16;;;;;;;;;;;;;;;2.45;100.00;100673.78;5092522;28;20019;-78
2022/01/25 07:49:03;;;;;;;;;;;;;;;2.46;100.00;100675.38;5093737;28;20181;-79
2022/01/25 07:51:32;;;;;;;;;;;;;;;2.58;100.00;100681.00;5092265;28;20371;-79
2022/01/25 07:53:59;;;;;;;;;;;;;;;2.71;100.00;100689.06;5093458;28;20256;-79
2022/01/25 07:56:27;;;;;;;;;;;;;;;2.87;100.00;100697.59;5082364;28;19963;-79
2022/01/25 07:58:54;;;;;;;;;;;;;;;2.48;100.00;100696.00;5060103;28;19925;-79
2022/01/25 08:01:21;;;;;;;;;;;;;;;2.37;100.00;100699.44;5071573;28;19925;-79
2022/01/25 08:03:49;;;;;;;;;;;;;;;2.35;100.00;100699.75;5071949;28;19928;-79
2022/01/25 08:06:37;;;;;;;;;;;;;;;2.17;100.00;100700.13;5014220;28;19926;-78
2022/01/25 08:09:33;;;;;;;;;;;;;;;2.27;100.00;100708.91;4936495;29;19962;-78
2022/01/25 08:12:12;;;;;;;;;;;;;;;2.08;100.00;100708.44;4930351;29;19926;-78
2022/01/25 08:15:06;;;;;;;;;;;;;;;2.28;100.00;100715.22;4889551;29;20415;-78
2022/01/25 08:18:09;;;;;;;;;;;;;;;2.16;100.00;100715.06;4848162;29;19928;-78
2022/01/25 08:21:00;;;;;;;;;;;;;;;2.31;100.00;100717.31;4848979;29;20363;-78
2022/01/25 08:23:41;;;;;;;;;;;;;;;2.45;100.00;100723.44;4841186;29;19928;-77
2022/01/25 08:26:25;;;;;;;;;;;;;;;2.49;100.00;100725.22;4860750;29;19920;-78
2022/01/25 08:29:07;;;;;;;;;;;;;;;2.26;100.00;100725.78;4793420;29;20309;-78
2022/01/25 08:31:52;;;;;;;;;;;;;;;2.26;100.00;100729.31;4806752;29;20020;-78
2022/01/25 08:34:36;;;;;;;;;;;;;;;2.42;100.00;100724.09;4806282;29;19927;-79
2022/01/25 08:37:30;;;;;;;;;;;;;;;2.66;100.00;100716.88;4806439;29;19967;-77
2022/01/25 08:40:26;;;;;;;;;;;;;;;2.77;100.00;100720.06;4805736;29;20385;-77
2022/01/25 08:43:13;;;;;;;;;;;;;;;2.60;100.00;100720.13;4799346;29;19928;-77
2022/01/25 08:45:54;;;;;;;;;;;;;;;2.84;100.00;100712.06;4857976;29;20297;-79
2022/01/25 08:48:45;;;;;;;;;;;;;;;3.10;100.00;100718.25;4758898;30;19982;-81
2022/01/25 08:51:27;;;;;;;;;;;;;;;3.18;100.00;100711.88;4781894;29;19970;-81
2022/01/25 08:54:11;;;;;;;;;;;;;;;3.23;100.00;100706.13;4770288;30;20349;-79
2022/01/25 08:57:04;;;;;;;;;;;;;;;3.10;100.00;100708.03;4757878;30;19990;-80
2022/01/25 08:59:45;;;;;;;;;;;;;;;3.21;100.00;100702.91;4744960;30;19971;-80
2022/01/25 09:02:13;;;;;;;;;;;;;;;2.76;100.00;100696.34;4794808;29;19933;-80
2022/01/25 09:04:40;;;;;;;;;;;;;;;3.07;100.00;100697.63;4810672;29;20376;-80
2022/01/25 09:07:07;;;;;;;;;;;;;;;3.20;100.00;100693.81;4863752;29;20326;-79
2022/01/25 09:09:35;;;;;;;;;;;;;;;3.25;100.00;100701.91;4919050;29;20025;-79
2022/01/25 09:12:03;;;;;;;;;;;;;;;3.26;100.00;100699.94;4918339;29;19957;-79
2022/01/25 09:14:30;;;;;;;;;;;;;;;3.41;100.00;100693.81;4936251;29;19927;-80
2022/01/25 09:16:57;;;;;;;;;;;;;;;3.56;100.00;100698.72;4936193;29;19958;-80
2022/01/25 09:19:25;;;;;;;;;;;;;;;3.64;100.00;100703.38;4935743;29;20375;-80
2022/01/25 09:21:52;;;;;;;;;;;;;;;3.56;100.00;100696.78;4934206;29;20030;-79
2022/01/25 09:24:19;;;;;;;;;;;;;;;3.55;100.00;100702.63;4958489;28;19932;-79
2022/01/25 09:26:46;;;;;;;;;;;;;;;3.59;100.00;100698.03;5076784;28;19959;-79
2022/01/25 09:29:14;;;;;;;;;;;;;;;3.51;100.00;100694.19;5076604;28;20314;-80
2022/01/25 09:31:41;;;;;;;;;;;;;;;3.44;100.00;100695.91;5077668;28;19931;-80
2022/01/25 09:34:08;;;;;;;;;;;;;;;3.51;100.00;100707.25;5074378;28;19929;-80
2022/01/25 09:36:40;;;;;;;;;;;;;;;3.21;100.00;100713.97;5058115;28;19931;-82
2022/01/25 09:39:20;;;;;;;;;;;;;;;3.38;100.00;100703.59;5075959;28;19931;-81
2022/01/25 09:41:47;;;;;;;;;;;;;;;3.59;100.00;100712.69;5054135;28;19967;-81
2022/01/25 09:44:15;;;;;;;;;;;;;;;3.26;100.00;100717.31;5055752;28;19969;-81
2022/01/25 09:46:43;;;;;;;;;;;;;;;2.99;100.00;100717.81;5054744;28;19974;-81
2022/01/25 09:49:10;;;;;;;;;;;;;;;3.12;100.00;100716.75;5055419;28;20019;-81
2022/01/25 09:51:41;;;;;;;;;;;;;;;3.29;100.00;100719.41;5055490;28;20280;-81
2022/01/25 09:54:08;;;;;;;;;;;;;;;3.27;100.00;100707.09;5073944;28;20009;-80
2022/01/25 09:56:37;;;;;;;;;;;;;;;3.12;100.00;100707.69;5091166;28;19930;-80
2022/01/25 09:59:04;;;;;;;;;;;;;;;3.12;100.00;100710.44;5074358;28;19964;-80
2022/01/25 10:01:32;;;;;;;;;;;;;;;3.10;100.00;100715.50;5073993;28;19925;-80
2022/01/25 10:04:04;;;;;;;;;;;;;;;3.22;100.00;100721.91;5073826;28;20299;-80
2022/01/25 10:06:32;;;;;;;;;;;;;;;2.90;100.00;100721.78;5057616;28;19924;-81
2022/01/25 10:08:59;;;;;;;;;;;;;;;2.85;100.00;100722.75;5075156;28;19936;-80
2022/01/25 10:11:27;;;;;;;;;;;;;;;2.94;100.00;100717.22;5075160;28;19928;-80
2022/01/25 10:13:57;;;;;;;;;;;;;;;2.41;100.00;100715.00;5056997;28;20482;-81
2022/01/25 10:16:30;;;;;;;;;;;;;;;2.40;100.00;100723.59;5074057;28;19924;-80
2022/01/25 10:18:59;;;;;;;;;;;;;;;2.62;100.00;100720.63;5057003;28;19929;-81
2022/01/25 10:21:31;;;;;;;;;;;;;;;2.35;100.00;100723.81;5057509;28;19978;-80
2022/01/25 10:23:58;;;;;;;;;;;;;;;2.40;100.00;100726.38;5074982;28;19924;-81
2022/01/25 10:26:26;;;;;;;;;;;;;;;2.55;100.00;100728.56;5074287;28;20026;-80
2022/01/25 10:29:09;;;;;;;;;;;;;;;2.45;100.00;100731.72;5072683;28;19952;-80
2022/01/25 10:31:38;;;;;;;;;;;;;;;2.48;100.00;100728.28;5073587;28;19925;-80
2022/01/25 10:34:07;;;;;;;;;;;;;;;2.71;100.00;100732.44;5074780;28;19924;-80
2022/01/25 10:36:45;;;;;;;;;;;;;;;2.72;100.00;100731.28;5073575;28;19929;-81
2022/01/25 10:39:14;;;;;;;;;;;;;;;2.71;100.00;100733.22;5074720;28;19924;-81
2022/01/25 10:41:42;;;;;;;;;;;;;;;2.62;100.00;100728.91;5073084;28;19925;-81
2022/01/25 10:44:09;;;;;;;;;;;;;;;2.54;100.00;100721.44;5073656;28;19943;-81
2022/01/25 10:46:36;;;;;;;;;;;;;;;2.55;100.00;100728.56;5056954;28;19976;-80
2022/01/25 10:49:05;;;;;;;;;;;;;;;2.56;100.00;100719.19;5069195;28;19925;-81
2022/01/25 10:51:46;;;;;;;;;;;;;;;2.46;100.00;100722.28;5068025;28;19931;-81
2022/01/25 10:54:17;;;;;;;;;;;;;;;2.26;100.00;100714.75;5090346;28;19924;-80
2022/01/25 10:56:46;;;;;;;;;;;;;;;2.16;100.00;100720.59;5074496;28;19924;-81
2022/01/25 10:59:15;;;;;;;;;;;;;;;2.15;100.00;100722.53;5074407;28;20019;-81
2022/01/25 11:01:48;;;;;;;;;;;;;;;2.24;100.00;100728.03;5077051;28;19924;-81
2022/01/25 11:04:16;;;;;;;;;;;;;;;2.20;100.00;100724.31;5094927;28;19952;-81
2022/01/25 11:06:52;;;;;;;;;;;;;;;2.05;100.00;100720.13;5093472;28;20375;-80
2022/01/25 11:09:22;;;;;;;;;;;;;;;2.19;100.00;100722.69;5076561;28;20014;-82
2022/01/25 11:11:53;;;;;;;;;;;;;;;2.37;100.00;100727.84;5094059;28;19977;-80
2022/01/25 11:17:09;;;;;;;;;;;;;;;2.57;100.00;100726.31;5072836;28;19928;-80
2022/01/25 11:19:36;;;;;;;;;;;;;;;2.47;100.00;100726.69;5069953;28;19930;-80
2022/01/25 11:22:03;;;;;;;;;;;;;;;2.56;100.00;100731.00;5051361;28;19932;-80
2022/01/25 11:24:31;;;;;;;;;;;;;;;2.62;100.00;100723.38;5075535;28;20061;-81
2022/01/25 11:27:03;;;;;;;;;;;;;;;2.52;100.00;100724.53;5056040;28;19925;-81
2022/01/25 11:29:32;;;;;;;;;;;;;;;2.56;100.00;100725.50;5063926;28;20379;-80
2022/01/25 11:32:05;;;;;;;;;;;;;;;2.59;100.00;100721.28;5068034;28;20269;-81
2022/01/25 11:34:33;;;;;;;;;;;;;;;2.61;100.00;100718.97;5083199;28;20379;-82
2022/01/25 11:37:07;;;;;;;;;;;;;;;2.64;100.00;100715.56;5073945;28;19948;-80
2022/01/25 11:39:38;;;;;;;;;;;;;;;2.88;100.00;100704.72;5056941;28;19924;-81
2022/01/25 11:42:10;;;;;;;;;;;;;;;2.83;100.00;100707.69;5086704;28;19931;-82
2022/01/25 11:44:48;;;;;;;;;;;;;;;2.91;100.00;100707.63;5092680;28;20448;-82
2022/01/25 11:47:16;;;;;;;;;;;;;;;2.75;100.00;100705.78;5092991;28;20320;-82
2022/01/25 11:49:50;;;;;;;;;;;;;;;2.81;100.00;100696.97;5092760;28;19925;-81
2022/01/25 11:52:18;;;;;;;;;;;;;;;2.99;100.00;100692.16;5092462;28;19924;-82
2022/01/25 11:54:45;;;;;;;;;;;;;;;2.87;100.00;100694.81;5077259;28;20441;-81
2022/01/25 11:57:32;;;;;;;;;;;;;;;3.03;100.00;100695.88;5055886;28;19971;-81
2022/01/25 11:59:59;;;;;;;;;;;;;;;3.01;100.00;100687.94;5072762;28;19925;-81
2022/01/25 12:02:40;;;;;;;;;;;;;;;3.07;100.00;100688.53;5076468;28;19924;-81
2022/01/25 12:05:12;;;;;;;;;;;;;;;3.27;100.00;100685.00;5075085;28;19954;-82
2022/01/25 12:07:42;;;;;;;;;;;;;;;2.93;100.00;100693.50;5058135;28;20321;-81
2022/01/25 12:10:30;;;;;;;;;;;;;;;3.11;100.00;100689.47;5058947;28;19929;-82
2022/01/25 12:13:11;;;;;;;;;;;;;;;2.90;100.00;100696.91;5058217;28;19930;-81
2022/01/25 12:15:38;;;;;;;;;;;;;;;3.06;100.00;100695.22;5058433;28;19924;-82
2022/01/25 12:18:08;;;;;;;;;;;;;;;3.02;100.00;100689.53;5024927;28;19925;-82
2022/01/25 12:20:46;;;;;;;;;;;;;;;2.96;100.00;100690.88;5074627;28;20035;-82
2022/01/25 12:23:20;;;;;;;;;;;;;;;2.98;100.00;100691.38;5075921;28;19928;-81
2022/01/25 12:25:54;;;;;;;;;;;;;;;3.03;100.00;100684.84;5058617;28;20287;-81
2022/01/25 12:28:37;;;;;;;;;;;;;;;3.07;100.00;100680.25;5075518;28;20019;-82
2022/01/25 12:31:13;;;;;;;;;;;;;;;2.99;100.00;100667.31;5074762;28;20337;-82
2022/01/25 12:33:40;;;;;;;;;;;;;;;3.29;100.00;100666.91;5075667;28;19924;-82
2022/01/25 12:36:09;;;;;;;;;;;;;;;3.39;100.00;100651.91;5074702;28;20380;-82
2022/01/25 12:38:39;;;;;;;;;;;;;;;3.80;100.00;100653.81;5058308;28;19931;-82
2022/01/25 12:41:06;;;;;;;;;;;;;;;3.67;100.00;100644.66;5057957;28;19931;-82
2022/01/25 12:43:43;;;;;;;;;;;;;;;3.69;100.00;100642.34;5074054;28;20356;-82
2022/01/25 12:46:12;;;;;;;;;;;;;;;3.99;100.00;100635.53;5075592;28;19956;-82
2022/01/25 12:48:42;;;;;;;;;;;;;;;4.10;100.00;100625.66;5073278;28;19970;-82
2022/01/25 12:51:10;;;;;;;;;;;;;;;4.32;100.00;100619.69;5046808;28;19925;-82
2022/01/25 12:53:39;;;;;;;;;;;;;;;4.41;100.00;100609.31;5080207;28;19924;-82
2022/01/25 12:56:27;;;;;;;;;;;;;;;4.39;100.00;100608.81;5075432;28;19925;-82
2022/01/25 12:58:56;;;;;;;;;;;;;;;4.10;100.00;100600.75;5096051;28;19924;-82
2022/01/25 13:01:26;;;;;;;;;;;;;;;4.53;100.00;100606.53;5073556;28;19932;-81
2022/01/25 13:03:56;;;;;;;;;;;;;;;4.56;100.00;100605.06;5079684;28;20019;-82
2022/01/25 13:06:24;;;;;;;;;;;;;;;4.54;100.00;100608.16;5058579;28;19947;-82
2022/01/25 13:09:17;;;;;;;;;;;;;;;4.49;100.00;100594.53;5060075;28;19924;-82
2022/01/25 13:16:39;;;;;;;;;;;;;;;4.57;100.00;100590.03;5057872;28;19930;-83
2022/01/25 13:19:08;;;;;;;;;;;;;;;4.81;100.00;100604.69;5057631;28;20379;-83
2022/01/25 13:21:44;;;;;;;;;;;;;;;4.76;100.00;100598.56;5074382;28;20078;-83
2022/01/25 13:24:31;;;;;;;;;;;;;;;4.88;100.00;100591.03;5084254;28;20314;-83
2022/01/25 13:27:05;;;;;;;;;;;;;;;4.76;100.00;100591.06;5077689;28;19952;-83
2022/01/25 13:32:27;;;;;;;;;;;;;;;5.13;100.00;100592.63;5095819;28;19931;-83
2022/01/25 13:35:02;;;;;;;;;;;;;;;4.63;100.00;100597.78;5061492;28;19925;-83
2022/01/25 13:37:29;;;;;;;;;;;;;;;5.13;100.00;100600.94;5094450;28;19924;-83
2022/01/25 13:39:58;;;;;;;;;;;;;;;5.33;100.00;100591.59;5095716;28;20020;-83
2022/01/25 13:43:07;;;;;;;;;;;;;;;5.46;100.00;100592.38;5095953;28;19924;-83
2022/01/25 13:48:10;;;;;;;;;;;;;;;5.48;100.00;100593.63;5093906;28;19974;-83
2022/01/25 13:50:39;;;;;;;;;;;;;;;5.39;100.00;100594.94;5060400;28;19932;-84
2022/01/25 13:53:08;;;;;;;;;;;;;;;5.39;100.00;100586.63;5073914;28;19936;-83
2022/01/25 13:55:37;;;;;;;;;;;;;;;5.12;100.00;100596.53;5084069;28;19924;-83
2022/01/25 13:58:18;;;;;;;;;;;;;;;4.66;100.00;100593.50;5094424;28;19930;-82
2022/01/25 14:00:52;;;;;;;;;;;;;;;4.60;100.00;100600.44;5076648;28;19924;-82
2022/01/25 14:03:24;;;;;;;;;;;;;;;4.41;100.00;100592.69;5077692;28;19928;-81
2022/01/25 14:05:53;;;;;;;;;;;;;;;4.21;100.00;100593.59;5074437;28;19925;-81
2022/01/25 14:08:58;;;;;;;;;;;;;;;3.74;100.00;100589.63;5087218;28;20309;-80
2022/01/25 14:11:48;;;;;;;;;;;;;;;3.48;100.00;100597.38;5052770;28;20042;-80
2022/01/25 14:25:27;;;;;;;;;;;;;;;4.09;100.00;100590.03;5036175;28;20027;-83
2022/01/25 14:27:56;;;;;;;;;;;;;;;4.70;100.00;100589.69;5019492;28;19979;-80
2022/01/25 14:30:23;;;;;;;;;;;;;;;4.60;100.00;100584.63;5018732;28;20403;-81
2022/01/25 14:32:59;;;;;;;;;;;;;;;4.57;100.00;100590.88;5036763;28;19929;-81
2022/01/25 14:35:26;;;;;;;;;;;;;;;4.77;100.00;100583.56;5075121;28;20024;-80
2022/01/25 14:37:56;;;;;;;;;;;;;;;5.18;100.00;100584.03;5055858;28;19932;-80
2022/01/25 14:40:23;;;;;;;;;;;;;;;5.40;100.00;100566.88;5055384;28;19925;-81
2022/01/25 14:42:50;;;;;;;;;;;;;;;4.62;100.00;100576.75;5099926;28;19935;-81
2022/01/25 14:45:20;;;;;;;;;;;;;;;4.52;100.00;100585.53;5080171;28;19931;-81
2022/01/25 14:47:53;;;;;;;;;;;;;;;5.00;100.00;100576.34;5069664;28;20347;-81
2022/01/25 14:50:25;;;;;;;;;;;;;;;4.88;100.00;100581.91;5054417;28;19925;-80
2022/01/25 14:53:07;;;;;;;;;;;;;;;5.19;100.00;100579.31;5053006;28;19994;-80
2022/01/25 14:55:36;;;;;;;;;;;;;;;5.22;100.00;100575.84;5074008;28;19924;-80
2022/01/25 14:58:23;;;;;;;;;;;;;;;5.42;100.00;100572.06;5076727;28;19931;-80
2022/01/25 15:00:51;;;;;;;;;;;;;;;5.52;100.00;100569.59;5110151;28;19924;-80
2022/01/25 15:03:19;;;;;;;;;;;;;;;5.74;100.00;100567.41;5093244;28;20000;-80